sensor_id;sensor_type;location;lat;lon;timestamp;P1;durP1;ratioP1;P2;durP2;ratioP2
21733;SDS011;11029;47.820;10.534;2023-06-05T00:02:12;5.22;;;4.00;;
21733;SDS011;11029;47.820;10.534;2023-06-05T00:04:39;6.45;;;4.10;;
21733;SDS011;11029;47.820;10.534;2023-06-05T00:07:07;4.28;;;3.67;;
21733;SDS011;11029;47.820;10.534;2023-06-05T00:09:33;5.03;;;4.10;;
21733;SDS011;11029;47.820;10.534;2023-06-05T00:12:01;5.50;;;4.15;;
21733;SDS011;11029;47.820;10.534;2023-06-05T00:14:27;8.65;;;3.83;;
21733;SDS011;11029;47.820;10.534;2023-06-05T00:16:54;4.47;;;3.47;;
21733;SDS011;11029;47.820;10.534;2023-06-05T00:19:23;5.65;;;3.92;;
21733;SDS011;11029;47.820;10.534;2023-06-05T00:21:50;5.35;;;4.10;;
21733;SDS011;11029;47.820;10.534;2023-06-05T00:24:19;3.67;;;3.25;;
21733;SDS011;11029;47.820;10.534;2023-06-05T00:26:46;4.22;;;3.55;;
21733;SDS011;11029;47.820;10.534;2023-06-05T00:29:13;5.60;;;3.90;;
21733;SDS011;11029;47.820;10.534;2023-06-05T00:31:41;4.65;;;4.00;;
21733;SDS011;11029;47.820;10.534;2023-06-05T00:34:10;3.85;;;3.45;;
21733;SDS011;11029;47.820;10.534;2023-06-05T00:36:36;4.38;;;3.53;;
21733;SDS011;11029;47.820;10.534;2023-06-05T00:39:03;4.57;;;3.75;;
21733;SDS011;11029;47.820;10.534;2023-06-05T00:41:30;8.23;;;4.30;;
21733;SDS011;11029;47.820;10.534;2023-06-05T00:43:57;6.28;;;4.35;;
21733;SDS011;11029;47.820;10.534;2023-06-05T00:46:24;5.32;;;4.05;;
21733;SDS011;11029;47.820;10.534;2023-06-05T00:48:51;6.53;;;4.20;;
21733;SDS011;11029;47.820;10.534;2023-06-05T00:51:19;9.77;;;4.50;;
21733;SDS011;11029;47.820;10.534;2023-06-05T00:53:47;7.65;;;4.43;;
21733;SDS011;11029;47.820;10.534;2023-06-05T00:56:14;7.78;;;5.13;;
21733;SDS011;11029;47.820;10.534;2023-06-05T00:58:43;7.25;;;4.68;;
21733;SDS011;11029;47.820;10.534;2023-06-05T01:01:10;6.20;;;4.90;;
21733;SDS011;11029;47.820;10.534;2023-06-05T01:03:37;5.93;;;4.43;;
21733;SDS011;11029;47.820;10.534;2023-06-05T01:06:06;6.78;;;4.80;;
21733;SDS011;11029;47.820;10.534;2023-06-05T01:08:33;5.35;;;4.00;;
21733;SDS011;11029;47.820;10.534;2023-06-05T01:11:11;5.00;;;3.97;;
21733;SDS011;11029;47.820;10.534;2023-06-05T01:13:47;5.35;;;4.38;;
21733;SDS011;11029;47.820;10.534;2023-06-05T01:16:34;6.20;;;4.60;;
21733;SDS011;11029;47.820;10.534;2023-06-05T01:19:04;6.70;;;4.63;;
21733;SDS011;11029;47.820;10.534;2023-06-05T01:21:31;4.90;;;4.15;;
21733;SDS011;11029;47.820;10.534;2023-06-05T01:23:58;6.45;;;4.30;;
21733;SDS011;11029;47.820;10.534;2023-06-05T01:26:28;5.32;;;4.82;;
21733;SDS011;11029;47.820;10.534;2023-06-05T01:29:06;6.28;;;4.72;;
21733;SDS011;11029;47.820;10.534;2023-06-05T01:31:36;7.25;;;4.22;;
21733;SDS011;11029;47.820;10.534;2023-06-05T01:34:07;5.35;;;4.00;;
21733;SDS011;11029;47.820;10.534;2023-06-05T01:36:40;5.00;;;3.83;;
21733;SDS011;11029;47.820;10.534;2023-06-05T01:39:07;4.45;;;4.00;;
21733;SDS011;11029;47.820;10.534;2023-06-05T01:41:37;7.40;;;4.10;;
21733;SDS011;11029;47.820;10.534;2023-06-05T01:44:06;5.53;;;3.97;;
21733;SDS011;11029;47.820;10.534;2023-06-05T01:46:34;6.00;;;3.90;;
21733;SDS011;11029;47.820;10.534;2023-06-05T01:49:02;5.32;;;3.60;;
21733;SDS011;11029;47.820;10.534;2023-06-05T01:51:29;5.65;;;4.07;;
21733;SDS011;11029;47.820;10.534;2023-06-05T01:53:56;4.50;;;3.53;;
21733;SDS011;11029;47.820;10.534;2023-06-05T01:56:23;5.30;;;4.00;;
21733;SDS011;11029;47.820;10.534;2023-06-05T01:58:51;5.88;;;4.10;;
21733;SDS011;11029;47.820;10.534;2023-06-05T02:01:19;5.43;;;3.92;;
21733;SDS011;11029;47.820;10.534;2023-06-05T02:03:49;4.85;;;3.70;;
21733;SDS011;11029;47.820;10.534;2023-06-05T02:06:16;4.93;;;4.22;;
21733;SDS011;11029;47.820;10.534;2023-06-05T02:08:43;5.53;;;4.20;;
21733;SDS011;11029;47.820;10.534;2023-06-05T02:11:10;4.93;;;4.20;;
21733;SDS011;11029;47.820;10.534;2023-06-05T02:13:37;4.97;;;3.75;;
21733;SDS011;11029;47.820;10.534;2023-06-05T02:16:08;4.47;;;3.75;;
21733;SDS011;11029;47.820;10.534;2023-06-05T02:18:35;6.18;;;4.30;;
21733;SDS011;11029;47.820;10.534;2023-06-05T02:21:03;5.55;;;4.38;;
21733;SDS011;11029;47.820;10.534;2023-06-05T02:23:30;5.65;;;3.83;;
21733;SDS011;11029;47.820;10.534;2023-06-05T02:25:58;5.40;;;3.95;;
21733;SDS011;11029;47.820;10.534;2023-06-05T02:28:25;4.35;;;3.92;;
21733;SDS011;11029;47.820;10.534;2023-06-05T02:30:54;5.70;;;4.28;;
21733;SDS011;11029;47.820;10.534;2023-06-05T02:33:21;5.47;;;4.00;;
21733;SDS011;11029;47.820;10.534;2023-06-05T02:35:49;4.90;;;3.85;;
21733;SDS011;11029;47.820;10.534;2023-06-05T02:38:16;5.25;;;4.43;;
21733;SDS011;11029;47.820;10.534;2023-06-05T02:40:43;4.28;;;3.75;;
21733;SDS011;11029;47.820;10.534;2023-06-05T02:43:09;5.05;;;4.07;;
21733;SDS011;11029;47.820;10.534;2023-06-05T02:45:37;5.07;;;4.15;;
21733;SDS011;11029;47.820;10.534;2023-06-05T02:48:04;5.57;;;4.30;;
21733;SDS011;11029;47.820;10.534;2023-06-05T02:50:31;5.85;;;4.10;;
21733;SDS011;11029;47.820;10.534;2023-06-05T02:53:02;4.93;;;4.13;;
21733;SDS011;11029;47.820;10.534;2023-06-05T02:55:32;4.20;;;3.80;;
21733;SDS011;11029;47.820;10.534;2023-06-05T02:58:05;6.60;;;4.13;;
21733;SDS011;11029;47.820;10.534;2023-06-05T03:00:39;5.45;;;3.85;;
21733;SDS011;11029;47.820;10.534;2023-06-05T03:03:07;5.22;;;3.80;;
21733;SDS011;11029;47.820;10.534;2023-06-05T03:05:34;5.90;;;4.85;;
21733;SDS011;11029;47.820;10.534;2023-06-05T03:08:06;6.47;;;4.28;;
21733;SDS011;11029;47.820;10.534;2023-06-05T03:10:34;6.25;;;4.30;;
21733;SDS011;11029;47.820;10.534;2023-06-05T03:13:02;4.45;;;4.03;;
21733;SDS011;11029;47.820;10.534;2023-06-05T03:15:32;8.18;;;4.75;;
21733;SDS011;11029;47.820;10.534;2023-06-05T03:18:00;7.07;;;4.40;;
21733;SDS011;11029;47.820;10.534;2023-06-05T03:20:28;5.38;;;4.30;;
21733;SDS011;11029;47.820;10.534;2023-06-05T03:22:55;5.90;;;4.15;;
21733;SDS011;11029;47.820;10.534;2023-06-05T03:25:23;4.80;;;3.88;;
21733;SDS011;11029;47.820;10.534;2023-06-05T03:27:54;5.43;;;3.92;;
21733;SDS011;11029;47.820;10.534;2023-06-05T03:30:24;4.93;;;4.20;;
21733;SDS011;11029;47.820;10.534;2023-06-05T03:32:54;4.85;;;3.75;;
21733;SDS011;11029;47.820;10.534;2023-06-05T03:35:21;5.32;;;4.15;;
21733;SDS011;11029;47.820;10.534;2023-06-05T03:37:49;8.98;;;3.95;;
21733;SDS011;11029;47.820;10.534;2023-06-05T03:40:16;6.35;;;4.30;;
21733;SDS011;11029;47.820;10.534;2023-06-05T03:42:44;5.43;;;4.30;;
21733;SDS011;11029;47.820;10.534;2023-06-05T03:45:11;5.25;;;4.28;;
21733;SDS011;11029;47.820;10.534;2023-06-05T03:47:40;5.75;;;4.13;;
21733;SDS011;11029;47.820;10.534;2023-06-05T03:50:09;7.35;;;4.40;;
21733;SDS011;11029;47.820;10.534;2023-06-05T03:52:41;5.72;;;3.90;;
21733;SDS011;11029;47.820;10.534;2023-06-05T03:55:07;6.90;;;4.18;;
21733;SDS011;11029;47.820;10.534;2023-06-05T03:57:36;6.45;;;4.70;;
21733;SDS011;11029;47.820;10.534;2023-06-05T04:00:09;6.75;;;4.07;;
21733;SDS011;11029;47.820;10.534;2023-06-05T04:02:39;4.88;;;4.38;;
21733;SDS011;11029;47.820;10.534;2023-06-05T04:05:10;4.82;;;3.83;;
21733;SDS011;11029;47.820;10.534;2023-06-05T04:07:38;5.82;;;4.40;;
21733;SDS011;11029;47.820;10.534;2023-06-05T04:10:06;7.43;;;4.18;;
21733;SDS011;11029;47.820;10.534;2023-06-05T04:12:33;6.10;;;3.80;;
21733;SDS011;11029;47.820;10.534;2023-06-05T04:15:01;7.25;;;4.15;;
21733;SDS011;11029;47.820;10.534;2023-06-05T04:17:28;9.18;;;4.50;;
21733;SDS011;11029;47.820;10.534;2023-06-05T04:19:55;7.00;;;4.78;;
21733;SDS011;11029;47.820;10.534;2023-06-05T04:22:24;6.00;;;4.28;;
21733;SDS011;11029;47.820;10.534;2023-06-05T04:24:51;6.00;;;4.30;;
21733;SDS011;11029;47.820;10.534;2023-06-05T04:27:18;8.52;;;4.55;;
21733;SDS011;11029;47.820;10.534;2023-06-05T04:29:46;6.13;;;4.18;;
21733;SDS011;11029;47.820;10.534;2023-06-05T04:32:16;8.35;;;4.95;;
21733;SDS011;11029;47.820;10.534;2023-06-05T04:34:43;7.82;;;4.47;;
21733;SDS011;11029;47.820;10.534;2023-06-05T04:37:10;7.93;;;4.68;;
21733;SDS011;11029;47.820;10.534;2023-06-05T04:39:37;7.95;;;4.43;;
21733;SDS011;11029;47.820;10.534;2023-06-05T04:42:04;6.70;;;4.78;;
21733;SDS011;11029;47.820;10.534;2023-06-05T04:44:42;6.50;;;4.60;;
21733;SDS011;11029;47.820;10.534;2023-06-05T04:47:09;6.63;;;4.50;;
21733;SDS011;11029;47.820;10.534;2023-06-05T04:49:36;5.53;;;4.38;;
21733;SDS011;11029;47.820;10.534;2023-06-05T04:52:04;6.78;;;4.70;;
21733;SDS011;11029;47.820;10.534;2023-06-05T04:54:32;4.97;;;4.38;;
21733;SDS011;11029;47.820;10.534;2023-06-05T04:56:59;6.63;;;4.93;;
21733;SDS011;11029;47.820;10.534;2023-06-05T04:59:27;6.03;;;5.07;;
21733;SDS011;11029;47.820;10.534;2023-06-05T05:01:54;7.88;;;4.68;;
21733;SDS011;11029;47.820;10.534;2023-06-05T05:04:22;9.57;;;5.28;;
21733;SDS011;11029;47.820;10.534;2023-06-05T05:06:51;5.55;;;4.93;;
21733;SDS011;11029;47.820;10.534;2023-06-05T05:09:20;6.80;;;5.13;;
21733;SDS011;11029;47.820;10.534;2023-06-05T05:11:47;8.13;;;5.03;;
21733;SDS011;11029;47.820;10.534;2023-06-05T05:14:16;5.72;;;4.97;;
21733;SDS011;11029;47.820;10.534;2023-06-05T05:16:43;6.55;;;5.03;;
21733;SDS011;11029;47.820;10.534;2023-06-05T05:19:10;7.95;;;5.28;;
21733;SDS011;11029;47.820;10.534;2023-06-05T05:21:37;6.75;;;5.00;;
21733;SDS011;11029;47.820;10.534;2023-06-05T05:24:04;7.22;;;5.63;;
21733;SDS011;11029;47.820;10.534;2023-06-05T05:26:33;7.53;;;5.30;;
21733;SDS011;11029;47.820;10.534;2023-06-05T05:29:00;7.32;;;5.40;;
21733;SDS011;11029;47.820;10.534;2023-06-05T05:31:27;7.80;;;5.45;;
21733;SDS011;11029;47.820;10.534;2023-06-05T05:33:55;5.90;;;5.30;;
21733;SDS011;11029;47.820;10.534;2023-06-05T05:36:22;6.95;;;5.53;;
21733;SDS011;11029;47.820;10.534;2023-06-05T05:38:49;6.80;;;5.50;;
21733;SDS011;11029;47.820;10.534;2023-06-05T05:41:16;6.45;;;5.07;;
21733;SDS011;11029;47.820;10.534;2023-06-05T05:43:43;7.50;;;5.38;;
21733;SDS011;11029;47.820;10.534;2023-06-05T05:46:10;5.90;;;4.88;;
21733;SDS011;11029;47.820;10.534;2023-06-05T05:48:37;6.78;;;5.75;;
21733;SDS011;11029;47.820;10.534;2023-06-05T05:51:05;7.75;;;5.53;;
21733;SDS011;11029;47.820;10.534;2023-06-05T05:53:32;7.35;;;5.10;;
21733;SDS011;11029;47.820;10.534;2023-06-05T05:55:59;12.25;;;5.57;;
21733;SDS011;11029;47.820;10.534;2023-06-05T05:58:26;8.15;;;5.95;;
21733;SDS011;11029;47.820;10.534;2023-06-05T06:00:53;6.05;;;4.95;;
21733;SDS011;11029;47.820;10.534;2023-06-05T06:03:21;6.32;;;4.85;;
21733;SDS011;11029;47.820;10.534;2023-06-05T06:05:49;5.40;;;4.90;;
21733;SDS011;11029;47.820;10.534;2023-06-05T06:08:16;11.32;;;4.72;;
21733;SDS011;11029;47.820;10.534;2023-06-05T06:10:43;9.13;;;5.90;;
21733;SDS011;11029;47.820;10.534;2023-06-05T06:13:10;6.35;;;5.65;;
21733;SDS011;11029;47.820;10.534;2023-06-05T06:15:36;6.57;;;5.20;;
21733;SDS011;11029;47.820;10.534;2023-06-05T06:18:05;6.18;;;5.32;;
21733;SDS011;11029;47.820;10.534;2023-06-05T06:20:32;7.43;;;5.88;;
21733;SDS011;11029;47.820;10.534;2023-06-05T06:22:59;7.43;;;6.00;;
21733;SDS011;11029;47.820;10.534;2023-06-05T06:25:28;6.82;;;5.72;;
21733;SDS011;11029;47.820;10.534;2023-06-05T06:27:59;8.68;;;5.90;;
21733;SDS011;11029;47.820;10.534;2023-06-05T06:30:27;8.02;;;5.45;;
21733;SDS011;11029;47.820;10.534;2023-06-05T06:32:55;8.23;;;5.50;;
21733;SDS011;11029;47.820;10.534;2023-06-05T06:35:25;8.95;;;6.07;;
21733;SDS011;11029;47.820;10.534;2023-06-05T06:37:52;9.50;;;5.72;;
21733;SDS011;11029;47.820;10.534;2023-06-05T06:40:21;8.32;;;5.45;;
21733;SDS011;11029;47.820;10.534;2023-06-05T06:42:48;8.63;;;5.55;;
21733;SDS011;11029;47.820;10.534;2023-06-05T06:45:31;7.00;;;5.70;;
21733;SDS011;11029;47.820;10.534;2023-06-05T06:47:58;8.25;;;5.55;;
21733;SDS011;11029;47.820;10.534;2023-06-05T06:50:31;7.78;;;6.00;;
21733;SDS011;11029;47.820;10.534;2023-06-05T06:52:58;5.82;;;4.78;;
21733;SDS011;11029;47.820;10.534;2023-06-05T06:55:25;8.57;;;6.00;;
21733;SDS011;11029;47.820;10.534;2023-06-05T06:57:52;6.18;;;5.55;;
21733;SDS011;11029;47.820;10.534;2023-06-05T07:00:18;6.65;;;5.75;;
21733;SDS011;11029;47.820;10.534;2023-06-05T07:02:46;6.63;;;5.15;;
21733;SDS011;11029;47.820;10.534;2023-06-05T07:05:14;7.78;;;5.47;;
21733;SDS011;11029;47.820;10.534;2023-06-05T07:07:41;6.15;;;5.45;;
21733;SDS011;11029;47.820;10.534;2023-06-05T07:10:07;5.97;;;5.22;;
21733;SDS011;11029;47.820;10.534;2023-06-05T07:12:34;6.43;;;5.43;;
21733;SDS011;11029;47.820;10.534;2023-06-05T07:15:01;5.68;;;5.03;;
21733;SDS011;11029;47.820;10.534;2023-06-05T07:17:29;6.45;;;5.53;;
21733;SDS011;11029;47.820;10.534;2023-06-05T07:19:56;6.00;;;5.00;;
21733;SDS011;11029;47.820;10.534;2023-06-05T07:22:23;5.13;;;4.50;;
21733;SDS011;11029;47.820;10.534;2023-06-05T07:24:53;5.57;;;5.00;;
21733;SDS011;11029;47.820;10.534;2023-06-05T07:27:20;6.43;;;4.70;;
21733;SDS011;11029;47.820;10.534;2023-06-05T07:29:47;5.95;;;4.80;;
21733;SDS011;11029;47.820;10.534;2023-06-05T07:32:17;5.75;;;4.93;;
21733;SDS011;11029;47.820;10.534;2023-06-05T07:34:45;7.40;;;4.88;;
21733;SDS011;11029;47.820;10.534;2023-06-05T07:37:11;5.55;;;5.00;;
21733;SDS011;11029;47.820;10.534;2023-06-05T07:39:38;5.63;;;5.03;;
21733;SDS011;11029;47.820;10.534;2023-06-05T07:42:05;9.52;;;5.68;;
21733;SDS011;11029;47.820;10.534;2023-06-05T07:44:32;6.13;;;5.53;;
21733;SDS011;11029;47.820;10.534;2023-06-05T07:46:59;8.98;;;5.15;;
21733;SDS011;11029;47.820;10.534;2023-06-05T07:49:29;6.78;;;5.80;;
21733;SDS011;11029;47.820;10.534;2023-06-05T07:51:56;7.88;;;6.25;;
21733;SDS011;11029;47.820;10.534;2023-06-05T07:54:23;10.88;;;5.95;;
21733;SDS011;11029;47.820;10.534;2023-06-05T07:56:50;6.38;;;5.43;;
21733;SDS011;11029;47.820;10.534;2023-06-05T07:59:17;13.75;;;5.97;;
21733;SDS011;11029;47.820;10.534;2023-06-05T08:01:51;9.15;;;6.30;;
21733;SDS011;11029;47.820;10.534;2023-06-05T08:04:18;10.38;;;6.32;;
21733;SDS011;11029;47.820;10.534;2023-06-05T08:06:46;7.30;;;5.97;;
21733;SDS011;11029;47.820;10.534;2023-06-05T08:09:13;11.40;;;6.25;;
21733;SDS011;11029;47.820;10.534;2023-06-05T08:11:40;7.90;;;6.20;;
21733;SDS011;11029;47.820;10.534;2023-06-05T08:14:08;7.60;;;6.47;;
21733;SDS011;11029;47.820;10.534;2023-06-05T08:16:35;8.38;;;6.50;;
21733;SDS011;11029;47.820;10.534;2023-06-05T08:19:03;10.23;;;7.35;;
21733;SDS011;11029;47.820;10.534;2023-06-05T08:21:30;13.13;;;6.70;;
21733;SDS011;11029;47.820;10.534;2023-06-05T08:23:57;11.05;;;6.28;;
21733;SDS011;11029;47.820;10.534;2023-06-05T08:26:24;8.70;;;7.10;;
21733;SDS011;11029;47.820;10.534;2023-06-05T08:28:52;8.13;;;6.57;;
21733;SDS011;11029;47.820;10.534;2023-06-05T08:31:19;7.15;;;6.45;;
21733;SDS011;11029;47.820;10.534;2023-06-05T08:33:46;7.97;;;7.00;;
21733;SDS011;11029;47.820;10.534;2023-06-05T08:36:13;6.93;;;6.22;;
21733;SDS011;11029;47.820;10.534;2023-06-05T08:38:40;7.63;;;6.43;;
21733;SDS011;11029;47.820;10.534;2023-06-05T08:41:08;9.70;;;7.70;;
21733;SDS011;11029;47.820;10.534;2023-06-05T08:43:37;7.90;;;6.47;;
21733;SDS011;11029;47.820;10.534;2023-06-05T08:46:09;9.38;;;6.55;;
21733;SDS011;11029;47.820;10.534;2023-06-05T08:48:46;9.07;;;6.32;;
21733;SDS011;11029;47.820;10.534;2023-06-05T08:51:16;9.25;;;6.68;;
21733;SDS011;11029;47.820;10.534;2023-06-05T08:54:05;8.75;;;6.32;;
21733;SDS011;11029;47.820;10.534;2023-06-05T08:56:35;7.75;;;6.20;;
21733;SDS011;11029;47.820;10.534;2023-06-05T08:59:03;7.15;;;6.45;;
21733;SDS011;11029;47.820;10.534;2023-06-05T09:01:31;7.97;;;6.40;;
21733;SDS011;11029;47.820;10.534;2023-06-05T09:04:01;12.38;;;6.05;;
21733;SDS011;11029;47.820;10.534;2023-06-05T09:06:28;8.13;;;6.00;;
21733;SDS011;11029;47.820;10.534;2023-06-05T09:08:55;6.57;;;5.82;;
21733;SDS011;11029;47.820;10.534;2023-06-05T09:11:22;10.65;;;6.15;;
21733;SDS011;11029;47.820;10.534;2023-06-05T09:13:51;8.73;;;5.60;;
21733;SDS011;11029;47.820;10.534;2023-06-05T09:16:19;6.13;;;5.50;;
21733;SDS011;11029;47.820;10.534;2023-06-05T09:18:57;6.10;;;5.50;;
21733;SDS011;11029;47.820;10.534;2023-06-05T09:21:25;8.25;;;5.60;;
21733;SDS011;11029;47.820;10.534;2023-06-05T09:24:20;5.65;;;5.13;;
21733;SDS011;11029;47.820;10.534;2023-06-05T09:29:30;8.07;;;5.57;;
21733;SDS011;11029;47.820;10.534;2023-06-05T09:32:08;8.05;;;5.57;;
21733;SDS011;11029;47.820;10.534;2023-06-05T09:34:39;6.50;;;4.75;;
21733;SDS011;11029;47.820;10.534;2023-06-05T09:37:07;7.47;;;5.05;;
21733;SDS011;11029;47.820;10.534;2023-06-05T09:39:36;4.95;;;4.30;;
21733;SDS011;11029;47.820;10.534;2023-06-05T09:42:04;4.78;;;4.32;;
21733;SDS011;11029;47.820;10.534;2023-06-05T09:44:32;4.47;;;3.83;;
21733;SDS011;11029;47.820;10.534;2023-06-05T09:49:29;5.28;;;4.68;;
21733;SDS011;11029;47.820;10.534;2023-06-05T09:51:58;4.70;;;4.25;;
21733;SDS011;11029;47.820;10.534;2023-06-05T09:54:27;4.88;;;4.38;;
21733;SDS011;11029;47.820;10.534;2023-06-05T09:56:56;6.40;;;4.80;;
21733;SDS011;11029;47.820;10.534;2023-06-05T10:02:05;5.53;;;4.60;;
21733;SDS011;11029;47.820;10.534;2023-06-05T10:04:34;5.30;;;4.28;;
21733;SDS011;11029;47.820;10.534;2023-06-05T10:07:12;7.05;;;4.20;;
21733;SDS011;11029;47.820;10.534;2023-06-05T10:09:39;4.30;;;3.90;;
21733;SDS011;11029;47.820;10.534;2023-06-05T10:12:08;4.88;;;4.38;;
21733;SDS011;11029;47.820;10.534;2023-06-05T10:14:36;5.15;;;4.65;;
21733;SDS011;11029;47.820;10.534;2023-06-05T10:17:06;5.18;;;4.70;;
21733;SDS011;11029;47.820;10.534;2023-06-05T10:19:33;5.88;;;4.13;;
21733;SDS011;11029;47.820;10.534;2023-06-05T10:22:01;7.45;;;4.85;;
21733;SDS011;11029;47.820;10.534;2023-06-05T10:24:33;6.65;;;4.65;;
21733;SDS011;11029;47.820;10.534;2023-06-05T10:37:56;6.00;;;4.68;;
21733;SDS011;11029;47.820;10.534;2023-06-05T10:40:35;4.65;;;4.25;;
21733;SDS011;11029;47.820;10.534;2023-06-05T10:51:34;4.95;;;4.25;;
21733;SDS011;11029;47.820;10.534;2023-06-05T10:54:12;5.97;;;3.83;;
21733;SDS011;11029;47.820;10.534;2023-06-05T10:56:59;7.97;;;4.80;;
21733;SDS011;11029;47.820;10.534;2023-06-05T10:59:30;6.25;;;3.95;;
21733;SDS011;11029;47.820;10.534;2023-06-05T11:07:22;5.95;;;4.18;;
21733;SDS011;11029;47.820;10.534;2023-06-05T11:17:35;5.32;;;4.78;;
21733;SDS011;11029;47.820;10.534;2023-06-05T11:20:06;5.28;;;4.40;;
21733;SDS011;11029;47.820;10.534;2023-06-05T11:25:35;5.10;;;4.43;;
21733;SDS011;11029;47.820;10.534;2023-06-05T11:28:03;5.88;;;4.85;;
21733;SDS011;11029;47.820;10.534;2023-06-05T11:30:32;4.95;;;4.40;;
21733;SDS011;11029;47.820;10.534;2023-06-05T11:33:13;4.20;;;3.88;;
21733;SDS011;11029;47.820;10.534;2023-06-05T11:35:46;4.95;;;4.03;;
21733;SDS011;11029;47.820;10.534;2023-06-05T11:38:15;5.28;;;4.15;;
21733;SDS011;11029;47.820;10.534;2023-06-05T11:40:50;6.78;;;3.97;;
21733;SDS011;11029;47.820;10.534;2023-06-05T11:43:18;5.30;;;3.80;;
21733;SDS011;11029;47.820;10.534;2023-06-05T11:45:49;4.38;;;3.83;;
21733;SDS011;11029;47.820;10.534;2023-06-05T11:48:23;6.45;;;3.75;;
21733;SDS011;11029;47.820;10.534;2023-06-05T11:50:57;6.07;;;3.90;;
21733;SDS011;11029;47.820;10.534;2023-06-05T11:53:29;4.63;;;3.95;;
21733;SDS011;11029;47.820;10.534;2023-06-05T11:55:57;5.15;;;3.63;;
21733;SDS011;11029;47.820;10.534;2023-06-05T11:58:31;4.32;;;3.90;;
21733;SDS011;11029;47.820;10.534;2023-06-05T12:01:07;7.57;;;4.28;;
21733;SDS011;11029;47.820;10.534;2023-06-05T12:03:45;4.10;;;3.70;;
21733;SDS011;11029;47.820;10.534;2023-06-05T12:06:14;5.10;;;3.45;;
21733;SDS011;11029;47.820;10.534;2023-06-05T12:08:42;4.40;;;3.83;;
21733;SDS011;11029;47.820;10.534;2023-06-05T12:11:23;5.22;;;4.05;;
21733;SDS011;11029;47.820;10.534;2023-06-05T12:16:21;6.22;;;4.13;;
21733;SDS011;11029;47.820;10.534;2023-06-05T12:19:00;4.30;;;3.53;;
21733;SDS011;11029;47.820;10.534;2023-06-05T12:21:41;5.47;;;4.40;;
21733;SDS011;11029;47.820;10.534;2023-06-05T12:24:09;6.63;;;4.25;;
21733;SDS011;11029;47.820;10.534;2023-06-05T12:26:49;6.03;;;4.13;;
21733;SDS011;11029;47.820;10.534;2023-06-05T12:29:20;6.07;;;4.15;;
21733;SDS011;11029;47.820;10.534;2023-06-05T12:31:50;5.15;;;4.30;;
21733;SDS011;11029;47.820;10.534;2023-06-05T12:34:18;5.07;;;3.45;;
21733;SDS011;11029;47.820;10.534;2023-06-05T12:36:45;5.32;;;3.97;;
21733;SDS011;11029;47.820;10.534;2023-06-05T12:39:13;4.63;;;4.22;;
21733;SDS011;11029;47.820;10.534;2023-06-05T12:41:42;4.32;;;3.95;;
21733;SDS011;11029;47.820;10.534;2023-06-05T12:44:10;7.97;;;4.00;;
21733;SDS011;11029;47.820;10.534;2023-06-05T12:46:37;8.32;;;4.65;;
21733;SDS011;11029;47.820;10.534;2023-06-05T12:49:04;5.65;;;4.30;;
21733;SDS011;11029;47.820;10.534;2023-06-05T12:51:34;4.38;;;3.97;;
21733;SDS011;11029;47.820;10.534;2023-06-05T12:54:00;9.27;;;4.78;;
21733;SDS011;11029;47.820;10.534;2023-06-05T12:56:27;7.43;;;3.92;;
21733;SDS011;11029;47.820;10.534;2023-06-05T12:58:55;7.80;;;4.47;;
21733;SDS011;11029;47.820;10.534;2023-06-05T13:01:23;6.00;;;3.85;;
21733;SDS011;11029;47.820;10.534;2023-06-05T13:06:22;5.20;;;3.92;;
21733;SDS011;11029;47.820;10.534;2023-06-05T13:08:49;4.50;;;4.10;;
21733;SDS011;11029;47.820;10.534;2023-06-05T13:11:17;4.55;;;4.10;;
21733;SDS011;11029;47.820;10.534;2023-06-05T13:13:44;6.38;;;4.10;;
21733;SDS011;11029;47.820;10.534;2023-06-05T13:16:11;4.38;;;4.00;;
21733;SDS011;11029;47.820;10.534;2023-06-05T13:18:38;4.68;;;3.72;;
21733;SDS011;11029;47.820;10.534;2023-06-05T13:21:05;4.10;;;3.70;;
21733;SDS011;11029;47.820;10.534;2023-06-05T13:23:32;4.70;;;3.70;;
21733;SDS011;11029;47.820;10.534;2023-06-05T13:26:00;4.60;;;4.10;;
21733;SDS011;11029;47.820;10.534;2023-06-05T13:28:27;4.80;;;4.30;;
21733;SDS011;11029;47.820;10.534;2023-06-05T13:30:54;6.80;;;4.35;;
21733;SDS011;11029;47.820;10.534;2023-06-05T13:33:22;5.03;;;4.40;;
21733;SDS011;11029;47.820;10.534;2023-06-05T13:35:51;4.93;;;4.00;;
21733;SDS011;11029;47.820;10.534;2023-06-05T13:38:19;5.93;;;4.30;;
21733;SDS011;11029;47.820;10.534;2023-06-05T13:40:48;5.60;;;4.30;;
21733;SDS011;11029;47.820;10.534;2023-06-05T13:43:16;5.30;;;4.10;;
21733;SDS011;11029;47.820;10.534;2023-06-05T13:45:44;6.38;;;4.10;;
21733;SDS011;11029;47.820;10.534;2023-06-05T13:48:11;4.30;;;3.90;;
21733;SDS011;11029;47.820;10.534;2023-06-05T13:50:38;6.40;;;4.40;;
21733;SDS011;11029;47.820;10.534;2023-06-05T13:53:05;6.28;;;4.70;;
21733;SDS011;11029;47.820;10.534;2023-06-05T13:55:32;7.45;;;4.00;;
21733;SDS011;11029;47.820;10.534;2023-06-05T13:57:59;4.55;;;4.13;;
21733;SDS011;11029;47.820;10.534;2023-06-05T14:00:30;5.95;;;4.40;;
21733;SDS011;11029;47.820;10.534;2023-06-05T14:02:58;6.00;;;4.53;;
21733;SDS011;11029;47.820;10.534;2023-06-05T14:05:25;4.70;;;4.25;;
21733;SDS011;11029;47.820;10.534;2023-06-05T14:07:52;4.47;;;4.07;;
21733;SDS011;11029;47.820;10.534;2023-06-05T14:10:20;9.32;;;4.20;;
21733;SDS011;11029;47.820;10.534;2023-06-05T14:12:49;5.30;;;4.80;;
21733;SDS011;11029;47.820;10.534;2023-06-05T14:15:17;5.47;;;4.97;;
21733;SDS011;11029;47.820;10.534;2023-06-05T14:17:45;14.48;;;5.72;;
21733;SDS011;11029;47.820;10.534;2023-06-05T14:20:13;6.65;;;5.53;;
21733;SDS011;11029;47.820;10.534;2023-06-05T14:22:40;7.20;;;5.80;;
21733;SDS011;11029;47.820;10.534;2023-06-05T14:25:07;7.32;;;5.80;;
21733;SDS011;11029;47.820;10.534;2023-06-05T14:27:36;7.63;;;4.88;;
21733;SDS011;11029;47.820;10.534;2023-06-05T14:30:04;5.93;;;4.25;;
21733;SDS011;11029;47.820;10.534;2023-06-05T14:32:31;6.55;;;4.75;;
21733;SDS011;11029;47.820;10.534;2023-06-05T14:34:58;6.47;;;4.88;;
21733;SDS011;11029;47.820;10.534;2023-06-05T14:37:25;6.78;;;5.30;;
21733;SDS011;11029;47.820;10.534;2023-06-05T14:39:51;5.70;;;4.45;;
21733;SDS011;11029;47.820;10.534;2023-06-05T14:42:18;7.95;;;4.53;;
21733;SDS011;11029;47.820;10.534;2023-06-05T14:44:45;7.50;;;5.20;;
21733;SDS011;11029;47.820;10.534;2023-06-05T14:47:12;9.25;;;5.10;;
21733;SDS011;11029;47.820;10.534;2023-06-05T14:49:38;6.00;;;5.38;;
21733;SDS011;11029;47.820;10.534;2023-06-05T14:52:05;7.78;;;5.25;;
21733;SDS011;11029;47.820;10.534;2023-06-05T14:54:32;5.35;;;4.22;;
21733;SDS011;11029;47.820;10.534;2023-06-05T14:56:59;5.55;;;4.88;;
21733;SDS011;11029;47.820;10.534;2023-06-05T14:59:26;8.27;;;4.95;;
21733;SDS011;11029;47.820;10.534;2023-06-05T15:01:53;5.07;;;4.45;;
21733;SDS011;11029;47.820;10.534;2023-06-05T15:04:20;5.45;;;4.05;;
21733;SDS011;11029;47.820;10.534;2023-06-05T15:06:47;4.90;;;4.32;;
21733;SDS011;11029;47.820;10.534;2023-06-05T15:09:17;5.15;;;4.65;;
21733;SDS011;11029;47.820;10.534;2023-06-05T15:11:44;5.18;;;4.68;;
21733;SDS011;11029;47.820;10.534;2023-06-05T15:14:11;6.10;;;4.10;;
21733;SDS011;11029;47.820;10.534;2023-06-05T15:16:39;6.25;;;4.28;;
21733;SDS011;11029;47.820;10.534;2023-06-05T15:19:08;5.45;;;4.25;;
21733;SDS011;11029;47.820;10.534;2023-06-05T15:21:35;4.90;;;4.35;;
21733;SDS011;11029;47.820;10.534;2023-06-05T15:24:03;4.07;;;3.53;;
21733;SDS011;11029;47.820;10.534;2023-06-05T15:26:30;5.18;;;3.78;;
21733;SDS011;11029;47.820;10.534;2023-06-05T15:28:57;5.45;;;3.55;;
21733;SDS011;11029;47.820;10.534;2023-06-05T15:31:23;3.80;;;3.50;;